BAW26K KMCO-EHAM
Flight info
| Callsign | BAW26K |
|---|---|
| Flight time | N/A |
| Altitude | 35000 |
| Route | JEEMY4 PAINN SHRKS BERTT GURGE RAYVO Q87 NOWAE FAK BOOYA Q34 RBV Q22 LLUND BIZEX Q133 CAM BEEHS JIGZY HULTN N611A SAXAN 5250N 5340N 5330N 5320N MALOT GISTI ENJEX ADHAV AXNEF ZIPWE OZZIL SAWPE L179 ICTAM M197 REDFA |
| Aircraft | A35K/H-SBDE1E2E3GHIJ1J3J4J5J6M1M2P2RWXYZ/LB1D1 |
Departure
| Time | 2026-04-25 11:49 |
|---|---|
| Airport | Orlando International Airport (KMCO) |
Arrival
| Time | N/A |
|---|---|
| Airport | Amsterdam Airport Schiphol (EHAM) |
| Time | Latitude | Longitude | Altitude | Speed | Heading |
|---|---|---|---|---|---|
| 2026-04-25 09:57 | 28.41238 | -81.31707 | 104 ft | 0 kts | 180° |
| 2026-04-25 11:25 | 28.41239 | -81.31707 | 104 ft | 1 kts | 180° |
| 2026-04-25 11:25 | 28.41262 | -81.31707 | 99 ft | 4 kts | 180° |
| 2026-04-25 11:25 | 28.41289 | -81.31707 | 99 ft | 3 kts | 180° |
| 2026-04-25 11:26 | 28.41310 | -81.31706 | 100 ft | 4 kts | 198° |
| 2026-04-25 11:26 | 28.41329 | -81.31691 | 100 ft | 4 kts | 256° |
| 2026-04-25 11:26 | 28.41330 | -81.31663 | 98 ft | 4 kts | 270° |
| 2026-04-25 11:26 | 28.41330 | -81.31642 | 99 ft | 0 kts | 270° |
| 2026-04-25 11:30 | 28.41330 | -81.31646 | 99 ft | 0 kts | 269° |
| 2026-04-25 11:31 | 28.41330 | -81.31654 | 98 ft | 4 kts | 269° |
| 2026-04-25 11:31 | 28.41330 | -81.31716 | 99 ft | 10 kts | 270° |
| 2026-04-25 11:31 | 28.41359 | -81.31786 | 103 ft | 10 kts | 329° |
| 2026-04-25 11:31 | 28.41432 | -81.31796 | 104 ft | 12 kts | 5° |
| 2026-04-25 11:32 | 28.41521 | -81.31791 | 105 ft | 12 kts | 1° |
| 2026-04-25 11:32 | 28.41557 | -81.31791 | 105 ft | 0 kts | 360° |
| 2026-04-25 11:32 | 28.41560 | -81.31791 | 105 ft | 0 kts | 0° |
| 2026-04-25 11:33 | 28.41567 | -81.31791 | 107 ft | 4 kts | 0° |
| 2026-04-25 11:33 | 28.41632 | -81.31789 | 104 ft | 15 kts | 1° |
| 2026-04-25 11:33 | 28.41766 | -81.31791 | 105 ft | 22 kts | 359° |
| 2026-04-25 11:33 | 28.41909 | -81.31794 | 105 ft | 6 kts | 360° |
| 2026-04-25 11:34 | 28.41920 | -81.31794 | 105 ft | 8 kts | 359° |
| 2026-04-25 11:34 | 28.42030 | -81.31794 | 105 ft | 17 kts | 1° |
| 2026-04-25 11:34 | 28.42138 | -81.31787 | 104 ft | 16 kts | 4° |
| 2026-04-25 11:34 | 28.42243 | -81.31790 | 105 ft | 12 kts | 322° |
| 2026-04-25 11:35 | 28.42260 | -81.31882 | 105 ft | 13 kts | 274° |
| 2026-04-25 11:35 | 28.42294 | -81.31971 | 107 ft | 12 kts | 328° |
| 2026-04-25 11:35 | 28.42376 | -81.31988 | 109 ft | 13 kts | 358° |
| 2026-04-25 11:35 | 28.42472 | -81.31990 | 109 ft | 15 kts | 359° |
| 2026-04-25 11:36 | 28.42585 | -81.31992 | 108 ft | 17 kts | 359° |
| 2026-04-25 11:36 | 28.42717 | -81.31991 | 108 ft | 21 kts | 360° |
| 2026-04-25 11:36 | 28.42875 | -81.31993 | 105 ft | 25 kts | 360° |
| 2026-04-25 11:36 | 28.43054 | -81.31995 | 105 ft | 25 kts | 359° |
| 2026-04-25 11:37 | 28.43213 | -81.31996 | 105 ft | 24 kts | 360° |
| 2026-04-25 11:37 | 28.43383 | -81.31999 | 105 ft | 24 kts | 359° |
| 2026-04-25 11:37 | 28.43548 | -81.32001 | 105 ft | 22 kts | 359° |
| 2026-04-25 11:37 | 28.43702 | -81.32003 | 104 ft | 23 kts | 359° |
| 2026-04-25 11:38 | 28.43844 | -81.32005 | 104 ft | 19 kts | 359° |
| 2026-04-25 11:38 | 28.43983 | -81.32007 | 105 ft | 21 kts | 359° |
| 2026-04-25 11:38 | 28.44131 | -81.32008 | 104 ft | 20 kts | 359° |
| 2026-04-25 11:38 | 28.44250 | -81.32010 | 106 ft | 0 kts | 359° |
| 2026-04-25 11:39 | 28.44280 | -81.32010 | 104 ft | 13 kts | 0° |
| 2026-04-25 11:39 | 28.44411 | -81.32009 | 106 ft | 22 kts | 360° |
| 2026-04-25 11:39 | 28.44530 | -81.32011 | 105 ft | 0 kts | 359° |
| 2026-04-25 11:40 | 28.44531 | -81.32011 | 105 ft | 0 kts | 359° |
| 2026-04-25 11:40 | 28.44537 | -81.32011 | 105 ft | 0 kts | 359° |
| 2026-04-25 11:41 | 28.44551 | -81.32011 | 105 ft | 4 kts | 359° |
| 2026-04-25 11:41 | 28.44589 | -81.32012 | 105 ft | 7 kts | 359° |
| 2026-04-25 11:42 | 28.44649 | -81.32013 | 106 ft | 10 kts | 359° |
| 2026-04-25 11:42 | 28.44729 | -81.32014 | 105 ft | 13 kts | 359° |
| 2026-04-25 11:42 | 28.44780 | -81.32020 | 106 ft | 3 kts | 343° |
| 2026-04-25 11:42 | 28.44789 | -81.32024 | 105 ft | 3 kts | 339° |
| 2026-04-25 11:43 | 28.44804 | -81.32037 | 105 ft | 4 kts | 316° |
| 2026-04-25 11:43 | 28.44812 | -81.32056 | 105 ft | 5 kts | 290° |
| 2026-04-25 11:43 | 28.44819 | -81.32094 | 106 ft | 0 kts | 274° |
| 2026-04-25 11:46 | 28.44819 | -81.32095 | 106 ft | 0 kts | 274° |
| 2026-04-25 11:47 | 28.44820 | -81.32103 | 106 ft | 5 kts | 274° |
| 2026-04-25 11:47 | 28.44821 | -81.32189 | 105 ft | 13 kts | 261° |
| 2026-04-25 11:47 | 28.44759 | -81.32228 | 105 ft | 2 kts | 181° |
| 2026-04-25 11:48 | 28.44758 | -81.32228 | 105 ft | 0 kts | 180° |
| 2026-04-25 11:48 | 28.44754 | -81.32228 | 105 ft | 0 kts | 180° |
| 2026-04-25 11:48 | 28.44658 | -81.32229 | 104 ft | 46 kts | 180° |
| 2026-04-25 11:48 | 28.44082 | -81.32224 | 107 ft | 117 kts | 179° |
| 2026-04-25 11:49 | 28.43062 | -81.32212 | 127 ft | 173 kts | 179° |
| 2026-04-25 11:49 | 28.41778 | -81.32204 | 655 ft | 187 kts | 180° |
| 2026-04-25 11:49 | 28.40500 | -81.32221 | 1622 ft | 179 kts | 183° |
| 2026-04-25 11:49 | 28.39260 | -81.32380 | 2285 ft | 187 kts | 195° |
| 2026-04-25 11:50 | 28.37996 | -81.33011 | 2579 ft | 212 kts | 209° |
| 2026-04-25 11:50 | 28.36627 | -81.33889 | 2895 ft | 240 kts | 210° |
| 2026-04-25 11:50 | 28.35176 | -81.34947 | 3454 ft | 254 kts | 221° |
| 2026-04-25 11:50 | 28.33956 | -81.36418 | 4241 ft | 258 kts | 230° |
| 2026-04-25 11:51 | 28.32806 | -81.38005 | 5043 ft | 262 kts | 231° |
| 2026-04-25 11:51 | 28.31640 | -81.39615 | 5894 ft | 266 kts | 230° |
| 2026-04-25 11:51 | 28.30450 | -81.41240 | 6588 ft | 270 kts | 230° |
| 2026-04-25 11:51 | 28.29305 | -81.42935 | 6943 ft | 272 kts | 240° |
| 2026-04-25 11:52 | 28.28737 | -81.44968 | 7032 ft | 272 kts | 265° |
| 2026-04-25 11:52 | 28.28730 | -81.47118 | 7024 ft | 274 kts | 275° |
| 2026-04-25 11:52 | 28.29329 | -81.49151 | 7025 ft | 274 kts | 302° |
| 2026-04-25 11:52 | 28.30615 | -81.50739 | 7026 ft | 274 kts | 320° |
| 2026-04-25 11:53 | 28.32122 | -81.52069 | 7024 ft | 275 kts | 323° |
| 2026-04-25 11:53 | 28.33663 | -81.53364 | 7024 ft | 276 kts | 323° |
| 2026-04-25 11:53 | 28.35317 | -81.54452 | 7024 ft | 276 kts | 340° |
| 2026-04-25 11:53 | 28.37189 | -81.54914 | 7026 ft | 276 kts | 352° |
| 2026-04-25 11:54 | 28.39100 | -81.55181 | 7022 ft | 276 kts | 353° |
| 2026-04-25 11:54 | 28.41012 | -81.55422 | 7023 ft | 277 kts | 353° |
| 2026-04-25 11:54 | 28.44839 | -81.55899 | 7247 ft | 278 kts | 353° |
| 2026-04-25 11:55 | 28.46774 | -81.56140 | 7998 ft | 281 kts | 353° |
| 2026-04-25 11:55 | 28.48718 | -81.56383 | 8986 ft | 282 kts | 353° |
| 2026-04-25 11:55 | 28.50650 | -81.56625 | 9873 ft | 284 kts | 353° |
| 2026-04-25 11:55 | 28.52677 | -81.56845 | 10560 ft | 298 kts | 357° |
| 2026-04-25 11:56 | 28.54810 | -81.56606 | 10921 ft | 320 kts | 13° |
| 2026-04-25 11:56 | 28.57023 | -81.55899 | 11290 ft | 341 kts | 17° |
| 2026-04-25 11:56 | 28.59342 | -81.55042 | 11680 ft | 359 kts | 18° |
| 2026-04-25 11:56 | 28.61742 | -81.54131 | 12326 ft | 367 kts | 18° |
| 2026-04-25 11:57 | 28.64182 | -81.53200 | 13075 ft | 372 kts | 18° |
| 2026-04-25 11:57 | 28.66621 | -81.52269 | 13802 ft | 377 kts | 18° |
| 2026-04-25 11:57 | 28.69120 | -81.51315 | 14551 ft | 381 kts | 18° |
| 2026-04-25 11:57 | 28.71648 | -81.50349 | 15268 ft | 385 kts | 18° |
| 2026-04-25 11:58 | 28.74199 | -81.49374 | 15796 ft | 387 kts | 18° |
| 2026-04-25 11:58 | 28.76760 | -81.48395 | 16003 ft | 389 kts | 18° |
| 2026-04-25 11:58 | 28.79334 | -81.47410 | 16026 ft | 391 kts | 18° |
| 2026-04-25 11:58 | 28.81915 | -81.46422 | 16025 ft | 392 kts | 18° |
| 2026-04-25 11:59 | 28.84499 | -81.45433 | 16024 ft | 392 kts | 18° |
| 2026-04-25 11:59 | 28.87085 | -81.44442 | 16024 ft | 392 kts | 18° |
| 2026-04-25 11:59 | 28.89673 | -81.43449 | 16024 ft | 392 kts | 18° |
| 2026-04-25 12:00 | 28.94923 | -81.41643 | 16750 ft | 397 kts | 8° |
| 2026-04-25 12:00 | 28.97680 | -81.41550 | 17521 ft | 398 kts | 356° |
| 2026-04-25 12:00 | 29.03244 | -81.42150 | 18868 ft | 406 kts | 354° |
| 2026-04-25 12:01 | 29.06066 | -81.42477 | 19542 ft | 410 kts | 354° |
| 2026-04-25 12:01 | 29.08914 | -81.42802 | 20209 ft | 414 kts | 354° |
| 2026-04-25 12:01 | 29.11795 | -81.43121 | 20862 ft | 418 kts | 354° |
| 2026-04-25 12:01 | 29.14708 | -81.43400 | 21487 ft | 422 kts | 355° |
| 2026-04-25 12:02 | 29.20617 | -81.43946 | 22716 ft | 430 kts | 355° |
| 2026-04-25 12:02 | 29.23609 | -81.44226 | 23307 ft | 434 kts | 355° |
| 2026-04-25 12:02 | 29.26630 | -81.44511 | 23895 ft | 438 kts | 355° |
| 2026-04-25 12:03 | 29.29676 | -81.44800 | 24472 ft | 441 kts | 355° |
| 2026-04-25 12:03 | 29.32749 | -81.45092 | 25030 ft | 445 kts | 355° |
| 2026-04-25 12:03 | 29.35847 | -81.45387 | 25574 ft | 449 kts | 355° |
| 2026-04-25 12:03 | 29.38975 | -81.45685 | 26109 ft | 452 kts | 355° |
| 2026-04-25 12:04 | 29.42123 | -81.45985 | 26630 ft | 456 kts | 355° |
| 2026-04-25 12:04 | 29.45300 | -81.46289 | 27130 ft | 460 kts | 355° |
| 2026-04-25 12:04 | 29.48495 | -81.46594 | 27620 ft | 463 kts | 355° |
| 2026-04-25 12:04 | 29.51718 | -81.46902 | 28102 ft | 466 kts | 355° |
| 2026-04-25 12:05 | 29.54964 | -81.47213 | 28566 ft | 470 kts | 355° |
| 2026-04-25 12:05 | 29.58235 | -81.47526 | 29016 ft | 473 kts | 355° |
| 2026-04-25 12:05 | 29.61527 | -81.47836 | 29448 ft | 476 kts | 355° |
| 2026-04-25 12:05 | 29.64847 | -81.48133 | 29862 ft | 479 kts | 355° |
| 2026-04-25 12:06 | 29.68135 | -81.48427 | 30248 ft | 482 kts | 355° |
| 2026-04-25 12:06 | 29.71491 | -81.48728 | 30612 ft | 485 kts | 355° |
| 2026-04-25 12:06 | 29.74865 | -81.49033 | 30990 ft | 488 kts | 355° |
| 2026-04-25 12:06 | 29.78262 | -81.49341 | 31337 ft | 491 kts | 355° |
| 2026-04-25 12:07 | 29.81675 | -81.49651 | 31668 ft | 493 kts | 355° |
| 2026-04-25 12:07 | 29.85091 | -81.49962 | 32137 ft | 492 kts | 355° |
| 2026-04-25 12:07 | 29.88483 | -81.50401 | 32600 ft | 490 kts | 349° |
| 2026-04-25 12:07 | 29.91797 | -81.51289 | 33035 ft | 489 kts | 344° |
| 2026-04-25 12:08 | 29.95063 | -81.52371 | 33450 ft | 488 kts | 343° |
| 2026-04-25 12:08 | 29.98304 | -81.53526 | 33854 ft | 487 kts | 342° |
| 2026-04-25 12:08 | 30.01529 | -81.54708 | 34246 ft | 486 kts | 342° |
| 2026-04-25 12:08 | 30.04748 | -81.55893 | 34616 ft | 486 kts | 342° |
| 2026-04-25 12:09 | 30.07975 | -81.57075 | 34924 ft | 486 kts | 342° |
| 2026-04-25 12:09 | 30.11205 | -81.58249 | 35007 ft | 488 kts | 342° |
| 2026-04-25 12:09 | 30.17699 | -81.60589 | 35002 ft | 489 kts | 342° |
| 2026-04-25 12:10 | 30.24203 | -81.62922 | 35002 ft | 490 kts | 342° |
| 2026-04-25 12:10 | 30.30710 | -81.65258 | 35005 ft | 490 kts | 342° |
| 2026-04-25 12:11 | 30.37221 | -81.67600 | 34996 ft | 490 kts | 342° |
| 2026-04-25 12:11 | 30.43725 | -81.69945 | 34997 ft | 490 kts | 342° |
| 2026-04-25 12:12 | 30.49132 | -81.71896 | 35000 ft | 490 kts | 342° |
| 2026-04-25 12:12 | 30.56737 | -81.74645 | 35003 ft | 490 kts | 342° |
| 2026-04-25 12:13 | 30.63407 | -81.76148 | 34999 ft | 490 kts | 357° |
| 2026-04-25 12:13 | 30.70216 | -81.75758 | 35000 ft | 490 kts | 5° |
| 2026-04-25 12:14 | 30.77003 | -81.74920 | 35001 ft | 490 kts | 6° |
| 2026-04-25 12:14 | 30.83780 | -81.74020 | 35000 ft | 490 kts | 6° |
| 2026-04-25 12:15 | 30.90567 | -81.73144 | 35004 ft | 490 kts | 6° |
| 2026-04-25 12:15 | 30.97308 | -81.72295 | 34997 ft | 490 kts | 6° |
| 2026-04-25 12:16 | 31.04093 | -81.71446 | 34996 ft | 490 kts | 6° |
| 2026-04-25 12:16 | 31.10879 | -81.70595 | 35000 ft | 490 kts | 6° |
| 2026-04-25 12:17 | 31.17616 | -81.69401 | 34998 ft | 491 kts | 15° |
| 2026-04-25 12:17 | 31.24178 | -81.67192 | 34996 ft | 491 kts | 17° |
| 2026-04-25 12:18 | 31.30698 | -81.64810 | 35000 ft | 491 kts | 17° |
| 2026-04-25 12:18 | 31.37210 | -81.62400 | 35000 ft | 491 kts | 17° |
| 2026-04-25 12:19 | 31.46983 | -81.58805 | 35000 ft | 491 kts | 17° |
| 2026-04-25 12:20 | 31.53504 | -81.56412 | 35003 ft | 491 kts | 17° |
| 2026-04-25 12:20 | 31.60020 | -81.54018 | 34999 ft | 491 kts | 17° |
| 2026-04-25 12:21 | 31.66534 | -81.51622 | 34996 ft | 491 kts | 17° |
| 2026-04-25 12:21 | 31.73054 | -81.49218 | 34995 ft | 491 kts | 17° |
| 2026-04-25 12:22 | 31.79563 | -81.46815 | 35002 ft | 491 kts | 17° |
| 2026-04-25 12:22 | 31.86084 | -81.44405 | 34996 ft | 491 kts | 17° |
| 2026-04-25 12:23 | 31.92599 | -81.41993 | 34998 ft | 491 kts | 17° |
| 2026-04-25 12:23 | 31.99115 | -81.39576 | 35000 ft | 491 kts | 17° |
| 2026-04-25 12:24 | 32.05625 | -81.37159 | 34999 ft | 491 kts | 17° |
| 2026-04-25 12:24 | 32.12140 | -81.34736 | 35001 ft | 491 kts | 17° |
| 2026-04-25 12:25 | 32.18654 | -81.32310 | 35000 ft | 491 kts | 17° |
| 2026-04-25 12:25 | 32.25169 | -81.29880 | 35000 ft | 491 kts | 17° |
| 2026-04-25 12:26 | 32.31641 | -81.27462 | 34998 ft | 491 kts | 17° |
| 2026-04-25 12:26 | 32.38153 | -81.25026 | 34996 ft | 491 kts | 17° |
| 2026-04-25 12:27 | 32.44702 | -81.22543 | 35002 ft | 491 kts | 19° |
| 2026-04-25 12:27 | 32.50691 | -81.18820 | 34997 ft | 491 kts | 36° |
| 2026-04-25 12:28 | 32.56092 | -81.13856 | 34998 ft | 492 kts | 39° |
| 2026-04-25 12:28 | 32.61367 | -81.08695 | 34998 ft | 492 kts | 39° |
| 2026-04-25 12:29 | 32.66632 | -81.03515 | 35002 ft | 492 kts | 39° |
| 2026-04-25 12:29 | 32.71911 | -80.98349 | 35001 ft | 492 kts | 39° |
| 2026-04-25 12:30 | 32.77197 | -80.93190 | 35004 ft | 492 kts | 39° |
| 2026-04-25 12:30 | 32.81589 | -80.88901 | 34998 ft | 492 kts | 39° |
| 2026-04-25 12:31 | 32.86907 | -80.83698 | 35003 ft | 492 kts | 39° |
| 2026-04-25 12:31 | 32.92186 | -80.78524 | 34997 ft | 492 kts | 39° |
| 2026-04-25 12:32 | 32.97463 | -80.73344 | 34999 ft | 492 kts | 39° |
| 2026-04-25 12:32 | 33.02703 | -80.68191 | 34994 ft | 492 kts | 39° |
| 2026-04-25 12:33 | 33.07977 | -80.62998 | 35002 ft | 492 kts | 39° |
| 2026-04-25 12:33 | 33.13247 | -80.57799 | 34998 ft | 492 kts | 39° |
| 2026-04-25 12:34 | 33.18514 | -80.52594 | 34992 ft | 492 kts | 39° |
| 2026-04-25 12:34 | 33.23785 | -80.47378 | 34997 ft | 492 kts | 39° |
| 2026-04-25 12:35 | 33.29050 | -80.42159 | 35002 ft | 492 kts | 39° |
| 2026-04-25 12:35 | 33.34312 | -80.36935 | 34991 ft | 492 kts | 39° |
| 2026-04-25 12:36 | 33.39572 | -80.31704 | 34998 ft | 492 kts | 39° |
| 2026-04-25 12:36 | 33.44827 | -80.26470 | 35000 ft | 492 kts | 39° |
| 2026-04-25 12:37 | 33.50087 | -80.21222 | 35000 ft | 492 kts | 39° |
| 2026-04-25 12:37 | 33.55339 | -80.15973 | 35000 ft | 492 kts | 39° |
| 2026-04-25 12:38 | 33.60591 | -80.10716 | 35004 ft | 492 kts | 39° |
| 2026-04-25 12:38 | 33.66121 | -80.05911 | 35005 ft | 491 kts | 28° |
| 2026-04-25 12:39 | 33.71794 | -80.02271 | 34999 ft | 491 kts | 27° |
| 2026-04-25 12:39 | 33.77895 | -79.98570 | 34997 ft | 491 kts | 26° |
| 2026-04-25 12:40 | 33.84009 | -79.94883 | 35001 ft | 491 kts | 26° |
| 2026-04-25 12:40 | 33.90110 | -79.91176 | 35004 ft | 491 kts | 26° |
| 2026-04-25 12:41 | 33.96207 | -79.87450 | 35003 ft | 491 kts | 26° |
| 2026-04-25 12:41 | 34.02262 | -79.83742 | 35005 ft | 491 kts | 26° |
| 2026-04-25 12:42 | 34.08353 | -79.80006 | 34996 ft | 491 kts | 26° |
| 2026-04-25 12:42 | 34.14445 | -79.76263 | 34995 ft | 491 kts | 26° |
| 2026-04-25 12:43 | 34.20539 | -79.72521 | 34996 ft | 491 kts | 26° |
| 2026-04-25 12:43 | 34.29674 | -79.66886 | 34998 ft | 491 kts | 27° |
| 2026-04-25 12:44 | 34.35760 | -79.63124 | 35004 ft | 491 kts | 27° |
| 2026-04-25 12:45 | 34.44892 | -79.57477 | 34995 ft | 491 kts | 27° |
| 2026-04-25 12:45 | 34.54019 | -79.51807 | 34999 ft | 491 kts | 27° |
| 2026-04-25 12:46 | 34.60062 | -79.47929 | 35006 ft | 492 kts | 28° |
| 2026-04-25 12:46 | 34.66026 | -79.43863 | 35000 ft | 492 kts | 29° |
| 2026-04-25 12:47 | 34.71991 | -79.39787 | 35006 ft | 492 kts | 29° |
| 2026-04-25 12:47 | 34.77959 | -79.35735 | 34996 ft | 492 kts | 29° |
| 2026-04-25 12:48 | 34.83956 | -79.31742 | 34999 ft | 492 kts | 28° |
| 2026-04-25 12:48 | 34.89921 | -79.27658 | 34994 ft | 492 kts | 29° |
| 2026-04-25 12:49 | 34.95879 | -79.23555 | 35001 ft | 492 kts | 29° |
| 2026-04-25 12:49 | 35.01843 | -79.19472 | 35002 ft | 492 kts | 29° |
| 2026-04-25 12:50 | 35.07787 | -79.15416 | 35001 ft | 492 kts | 29° |
| 2026-04-25 12:50 | 35.13789 | -79.11318 | 34998 ft | 492 kts | 29° |
| 2026-04-25 12:51 | 35.19761 | -79.07232 | 34991 ft | 492 kts | 29° |
| 2026-04-25 12:51 | 35.25729 | -79.03139 | 35004 ft | 492 kts | 29° |
| 2026-04-25 12:52 | 35.31698 | -78.99040 | 35001 ft | 492 kts | 29° |
| 2026-04-25 12:52 | 35.37623 | -78.94964 | 35003 ft | 492 kts | 29° |
| 2026-04-25 12:53 | 35.43588 | -78.90854 | 35001 ft | 492 kts | 29° |
| 2026-04-25 12:53 | 35.49555 | -78.86743 | 35006 ft | 492 kts | 29° |
| 2026-04-25 12:54 | 35.55514 | -78.82617 | 35002 ft | 492 kts | 29° |
| 2026-04-25 12:54 | 35.61476 | -78.78484 | 34996 ft | 492 kts | 29° |
| 2026-04-25 12:55 | 35.66430 | -78.75049 | 34995 ft | 492 kts | 29° |
| 2026-04-25 12:55 | 35.73396 | -78.70204 | 34996 ft | 492 kts | 29° |
| 2026-04-25 12:56 | 35.79358 | -78.66051 | 35002 ft | 492 kts | 29° |
| 2026-04-25 12:56 | 35.85314 | -78.61896 | 34993 ft | 492 kts | 29° |
| 2026-04-25 12:57 | 35.91270 | -78.57734 | 34999 ft | 492 kts | 29° |
| 2026-04-25 12:57 | 35.97221 | -78.53568 | 34995 ft | 492 kts | 29° |
| 2026-04-25 12:58 | 36.03171 | -78.49396 | 35002 ft | 492 kts | 29° |
| 2026-04-25 12:58 | 36.09125 | -78.45213 | 34993 ft | 492 kts | 29° |
| 2026-04-25 12:59 | 36.15073 | -78.41027 | 34995 ft | 492 kts | 29° |
| 2026-04-25 12:59 | 36.21020 | -78.36834 | 35003 ft | 492 kts | 29° |
| 2026-04-25 13:00 | 36.24998 | -78.34026 | 35005 ft | 492 kts | 29° |
| 2026-04-25 13:00 | 36.32912 | -78.28429 | 34998 ft | 492 kts | 30° |
| 2026-04-25 13:01 | 36.39044 | -78.24687 | 35001 ft | 492 kts | 18° |
| 2026-04-25 13:01 | 36.45559 | -78.22114 | 35000 ft | 491 kts | 16° |
| 2026-04-25 13:02 | 36.52127 | -78.19744 | 35005 ft | 491 kts | 15° |
| 2026-04-25 13:02 | 36.58697 | -78.17399 | 34999 ft | 491 kts | 16° |
| 2026-04-25 13:03 | 36.65263 | -78.15032 | 34993 ft | 491 kts | 16° |
| 2026-04-25 13:03 | 36.71832 | -78.12646 | 35000 ft | 491 kts | 16° |
| 2026-04-25 13:04 | 36.78396 | -78.10253 | 34997 ft | 492 kts | 16° |
| 2026-04-25 13:04 | 36.84963 | -78.07856 | 34998 ft | 491 kts | 16° |
| 2026-04-25 13:05 | 36.91521 | -78.05459 | 35002 ft | 492 kts | 16° |
| 2026-04-25 13:05 | 36.98089 | -78.03054 | 35000 ft | 492 kts | 16° |
| 2026-04-25 13:06 | 37.04609 | -78.00662 | 35001 ft | 491 kts | 16° |
| 2026-04-25 13:06 | 37.11175 | -77.98249 | 34999 ft | 492 kts | 16° |
| 2026-04-25 13:07 | 37.17736 | -77.95833 | 35004 ft | 492 kts | 16° |
| 2026-04-25 13:07 | 37.24298 | -77.93412 | 34997 ft | 491 kts | 16° |
| 2026-04-25 13:08 | 37.30857 | -77.90989 | 34997 ft | 491 kts | 16° |
| 2026-04-25 13:08 | 37.37416 | -77.88561 | 35000 ft | 491 kts | 16° |
| 2026-04-25 13:09 | 37.43971 | -77.86130 | 35000 ft | 491 kts | 16° |
| 2026-04-25 13:09 | 37.50529 | -77.83693 | 35000 ft | 491 kts | 16° |
| 2026-04-25 13:10 | 37.56938 | -77.80686 | 34999 ft | 492 kts | 22° |
| 2026-04-25 13:10 | 37.63264 | -77.77401 | 35002 ft | 491 kts | 22° |
| 2026-04-25 13:11 | 37.69575 | -77.74068 | 35003 ft | 492 kts | 22° |
| 2026-04-25 13:11 | 37.75884 | -77.70733 | 34999 ft | 492 kts | 22° |
| 2026-04-25 13:12 | 37.82197 | -77.67397 | 35000 ft | 492 kts | 22° |
| 2026-04-25 13:12 | 37.86415 | -77.65168 | 35001 ft | 492 kts | 22° |
| 2026-04-25 13:13 | 37.94814 | -77.60721 | 34995 ft | 491 kts | 22° |
| 2026-04-25 13:13 | 38.01124 | -77.57374 | 35000 ft | 492 kts | 22° |
| 2026-04-25 13:14 | 38.07431 | -77.54020 | 35004 ft | 492 kts | 22° |
| 2026-04-25 13:14 | 38.13740 | -77.50660 | 35001 ft | 491 kts | 22° |
| 2026-04-25 13:15 | 38.18980 | -77.47864 | 35005 ft | 491 kts | 22° |
| 2026-04-25 13:15 | 38.25285 | -77.44495 | 35003 ft | 491 kts | 22° |
| 2026-04-25 13:16 | 38.31582 | -77.41123 | 34999 ft | 491 kts | 22° |
| 2026-04-25 13:16 | 38.37825 | -77.37584 | 35003 ft | 491 kts | 28° |
| 2026-04-25 13:17 | 38.43247 | -77.32333 | 35006 ft | 491 kts | 46° |
| 2026-04-25 13:17 | 38.47893 | -77.25935 | 34995 ft | 492 kts | 48° |
| 2026-04-25 13:18 | 38.52400 | -77.19366 | 35001 ft | 492 kts | 49° |
| 2026-04-25 13:18 | 38.56900 | -77.12785 | 35001 ft | 492 kts | 49° |
| 2026-04-25 13:19 | 38.61421 | -77.06211 | 34999 ft | 492 kts | 48° |
| 2026-04-25 13:19 | 38.65181 | -77.00754 | 34996 ft | 492 kts | 48° |
| 2026-04-25 13:20 | 38.70465 | -76.93074 | 35000 ft | 492 kts | 49° |
| 2026-04-25 13:20 | 38.74984 | -76.86489 | 35001 ft | 492 kts | 49° |
| 2026-04-25 13:21 | 38.79505 | -76.79894 | 34997 ft | 492 kts | 49° |
| 2026-04-25 13:21 | 38.84013 | -76.73292 | 35003 ft | 492 kts | 49° |
| 2026-04-25 13:22 | 38.88519 | -76.66678 | 35003 ft | 492 kts | 49° |
| 2026-04-25 13:23 | 38.95266 | -76.56754 | 34996 ft | 492 kts | 49° |
| 2026-04-25 13:23 | 38.99765 | -76.50120 | 35003 ft | 492 kts | 49° |
| 2026-04-25 13:24 | 39.04251 | -76.43491 | 34998 ft | 492 kts | 49° |
| 2026-04-25 13:24 | 39.08741 | -76.36844 | 35003 ft | 492 kts | 49° |
| 2026-04-25 13:25 | 39.13223 | -76.30193 | 34995 ft | 492 kts | 49° |
| 2026-04-25 13:25 | 39.17703 | -76.23531 | 35002 ft | 492 kts | 49° |
| 2026-04-25 13:26 | 39.22180 | -76.16859 | 35000 ft | 492 kts | 49° |
| 2026-04-25 13:26 | 39.26654 | -76.10180 | 34998 ft | 492 kts | 49° |
| 2026-04-25 13:27 | 39.31121 | -76.03495 | 35003 ft | 492 kts | 49° |
| 2026-04-25 13:27 | 39.35587 | -75.96797 | 35002 ft | 492 kts | 49° |
| 2026-04-25 13:28 | 39.40047 | -75.90094 | 35001 ft | 492 kts | 49° |
| 2026-04-25 13:28 | 39.44504 | -75.83382 | 35003 ft | 492 kts | 49° |
| 2026-04-25 13:29 | 39.48929 | -75.76704 | 35003 ft | 492 kts | 49° |
| 2026-04-25 13:29 | 39.53380 | -75.69972 | 35001 ft | 492 kts | 49° |
| 2026-04-25 13:30 | 39.60046 | -75.59862 | 35000 ft | 492 kts | 49° |
| 2026-04-25 13:31 | 39.66698 | -75.49733 | 34986 ft | 492 kts | 50° |
| 2026-04-25 13:31 | 39.70817 | -75.42642 | 34999 ft | 492 kts | 54° |
| 2026-04-25 13:32 | 39.74751 | -75.35368 | 35003 ft | 492 kts | 54° |
| 2026-04-25 13:32 | 39.78721 | -75.28124 | 35001 ft | 492 kts | 54° |
| 2026-04-25 13:33 | 39.82735 | -75.20915 | 35003 ft | 492 kts | 54° |
| 2026-04-25 13:33 | 39.86757 | -75.13717 | 35000 ft | 492 kts | 54° |
| 2026-04-25 13:34 | 39.90781 | -75.06500 | 35003 ft | 492 kts | 54° |
| 2026-04-25 13:34 | 39.94793 | -74.99283 | 35003 ft | 492 kts | 54° |
| 2026-04-25 13:35 | 39.98783 | -74.92031 | 35003 ft | 492 kts | 55° |
| 2026-04-25 13:35 | 40.02547 | -74.84647 | 35002 ft | 492 kts | 57° |
| 2026-04-25 13:36 | 40.06284 | -74.77157 | 34999 ft | 492 kts | 57° |
| 2026-04-25 13:36 | 40.10041 | -74.69692 | 34999 ft | 492 kts | 56° |
| 2026-04-25 13:37 | 40.13817 | -74.62232 | 35003 ft | 492 kts | 56° |
| 2026-04-25 13:37 | 40.17592 | -74.54772 | 34998 ft | 492 kts | 56° |
| 2026-04-25 13:38 | 40.21942 | -74.47894 | 35005 ft | 491 kts | 41° |
| 2026-04-25 13:38 | 40.27128 | -74.42071 | 35002 ft | 492 kts | 39° |
| 2026-04-25 13:39 | 40.32441 | -74.36417 | 34998 ft | 492 kts | 39° |
| 2026-04-25 13:39 | 40.37759 | -74.30775 | 35002 ft | 492 kts | 39° |
| 2026-04-25 13:40 | 40.43063 | -74.25102 | 35002 ft | 492 kts | 39° |
| 2026-04-25 13:40 | 40.48354 | -74.19410 | 34997 ft | 492 kts | 39° |
| 2026-04-25 13:41 | 40.53635 | -74.13714 | 34996 ft | 491 kts | 39° |
| 2026-04-25 13:41 | 40.58922 | -74.08009 | 35000 ft | 491 kts | 39° |
| 2026-04-25 13:42 | 40.64205 | -74.02286 | 35002 ft | 492 kts | 39° |
| 2026-04-25 13:42 | 40.69482 | -73.96555 | 34999 ft | 492 kts | 39° |
| 2026-04-25 13:43 | 40.74754 | -73.90820 | 34996 ft | 492 kts | 39° |
| 2026-04-25 13:43 | 40.80028 | -73.85073 | 35001 ft | 492 kts | 39° |
| 2026-04-25 13:44 | 40.85385 | -73.79574 | 34995 ft | 491 kts | 32° |
| 2026-04-25 13:44 | 40.91549 | -73.75731 | 35002 ft | 490 kts | 21° |
| 2026-04-25 13:45 | 40.97952 | -73.72597 | 35004 ft | 491 kts | 19° |
| 2026-04-25 13:45 | 41.04395 | -73.69568 | 34997 ft | 491 kts | 19° |
| 2026-04-25 13:46 | 41.10832 | -73.66520 | 34996 ft | 491 kts | 19° |
| 2026-04-25 13:46 | 41.17266 | -73.63441 | 35001 ft | 492 kts | 20° |
| 2026-04-25 13:47 | 41.23705 | -73.60342 | 34996 ft | 492 kts | 20° |
| 2026-04-25 13:47 | 41.30288 | -73.57944 | 35003 ft | 491 kts | 7° |
| 2026-04-25 13:48 | 41.37072 | -73.56831 | 34995 ft | 492 kts | 6° |
| 2026-04-25 13:48 | 41.43882 | -73.55926 | 35000 ft | 492 kts | 5° |
| 2026-04-25 13:49 | 41.50691 | -73.55040 | 34993 ft | 492 kts | 5° |
| 2026-04-25 13:49 | 41.57484 | -73.54133 | 34994 ft | 492 kts | 5° |
| 2026-04-25 13:50 | 41.62483 | -73.53455 | 35000 ft | 493 kts | 5° |
| 2026-04-25 13:51 | 41.73654 | -73.51930 | 35005 ft | 492 kts | 5° |
| 2026-04-25 13:51 | 41.79973 | -73.51065 | 35000 ft | 492 kts | 5° |
| 2026-04-25 13:52 | 41.86782 | -73.50132 | 35001 ft | 492 kts | 5° |
| 2026-04-25 13:52 | 41.93589 | -73.49199 | 34994 ft | 492 kts | 5° |
| 2026-04-25 13:53 | 42.00403 | -73.48261 | 35000 ft | 493 kts | 5° |
| 2026-04-25 13:53 | 42.07233 | -73.47320 | 34998 ft | 494 kts | 6° |
| 2026-04-25 13:54 | 42.14080 | -73.46373 | 35001 ft | 494 kts | 6° |
| 2026-04-25 13:54 | 42.20911 | -73.45427 | 35002 ft | 493 kts | 6° |
| 2026-04-25 13:55 | 42.27732 | -73.44481 | 35000 ft | 493 kts | 6° |
| 2026-04-25 13:55 | 42.34566 | -73.43531 | 35003 ft | 494 kts | 6° |
| 2026-04-25 13:56 | 42.41395 | -73.42579 | 34996 ft | 493 kts | 6° |
| 2026-04-25 13:56 | 42.48218 | -73.41626 | 35000 ft | 493 kts | 6° |
| 2026-04-25 13:57 | 42.55039 | -73.40671 | 35000 ft | 493 kts | 6° |
| 2026-04-25 13:57 | 42.61860 | -73.39714 | 35001 ft | 493 kts | 6° |
| 2026-04-25 13:58 | 42.68696 | -73.38753 | 34999 ft | 494 kts | 6° |
| 2026-04-25 13:58 | 42.75535 | -73.37789 | 35001 ft | 493 kts | 6° |
| 2026-04-25 13:59 | 42.82359 | -73.36826 | 35003 ft | 493 kts | 6° |
| 2026-04-25 13:59 | 42.89136 | -73.35867 | 35001 ft | 492 kts | 6° |
| 2026-04-25 14:00 | 42.95941 | -73.34902 | 35001 ft | 492 kts | 6° |
| 2026-04-25 14:00 | 43.02756 | -73.33968 | 34997 ft | 492 kts | 5° |
| 2026-04-25 14:01 | 43.09582 | -73.33266 | 35000 ft | 492 kts | 4° |
| 2026-04-25 14:01 | 43.16411 | -73.32614 | 35001 ft | 492 kts | 4° |
| 2026-04-25 14:02 | 43.23233 | -73.31930 | 35000 ft | 492 kts | 4° |
| 2026-04-25 14:02 | 43.30059 | -73.31221 | 34999 ft | 492 kts | 4° |
| 2026-04-25 14:03 | 43.36890 | -73.30503 | 34996 ft | 492 kts | 4° |
| 2026-04-25 14:03 | 43.43714 | -73.29785 | 35000 ft | 492 kts | 4° |
| 2026-04-25 14:04 | 43.50536 | -73.29067 | 35001 ft | 492 kts | 4° |
| 2026-04-25 14:04 | 43.57362 | -73.28347 | 35000 ft | 492 kts | 4° |
| 2026-04-25 14:05 | 43.64183 | -73.27627 | 35000 ft | 491 kts | 4° |
| 2026-04-25 14:05 | 43.71003 | -73.26904 | 35001 ft | 491 kts | 4° |
| 2026-04-25 14:06 | 43.77818 | -73.26181 | 35007 ft | 491 kts | 4° |
| 2026-04-25 14:06 | 43.84639 | -73.25456 | 34997 ft | 491 kts | 4° |
| 2026-04-25 14:07 | 43.91457 | -73.24728 | 35000 ft | 491 kts | 4° |
| 2026-04-25 14:07 | 43.98156 | -73.22995 | 35000 ft | 491 kts | 19° |
| 2026-04-25 14:08 | 44.04160 | -73.18553 | 35000 ft | 491 kts | 38° |
| 2026-04-25 14:08 | 44.08813 | -73.11634 | 35002 ft | 492 kts | 53° |
| 2026-04-25 14:09 | 44.12751 | -73.03834 | 35002 ft | 493 kts | 56° |
| 2026-04-25 14:09 | 44.16599 | -72.95905 | 35003 ft | 495 kts | 56° |
| 2026-04-25 14:10 | 44.20479 | -72.87952 | 35001 ft | 497 kts | 56° |
| 2026-04-25 14:10 | 44.24377 | -72.80013 | 35001 ft | 496 kts | 55° |
| 2026-04-25 14:11 | 44.28267 | -72.72096 | 35002 ft | 494 kts | 55° |
| 2026-04-25 14:11 | 44.32142 | -72.64188 | 35003 ft | 494 kts | 56° |
| 2026-04-25 14:12 | 44.35989 | -72.56310 | 35003 ft | 494 kts | 56° |
| 2026-04-25 14:12 | 44.39856 | -72.48369 | 35002 ft | 494 kts | 56° |
| 2026-04-25 14:13 | 44.43721 | -72.40410 | 35004 ft | 495 kts | 56° |
| 2026-04-25 14:13 | 44.47583 | -72.32436 | 35003 ft | 495 kts | 56° |
| 2026-04-25 14:14 | 44.51439 | -72.24452 | 34996 ft | 495 kts | 56° |
| 2026-04-25 14:14 | 44.55295 | -72.16445 | 34997 ft | 496 kts | 56° |
| 2026-04-25 14:15 | 44.59177 | -72.08361 | 35001 ft | 496 kts | 56° |
| 2026-04-25 14:15 | 44.62994 | -72.00392 | 35003 ft | 495 kts | 56° |
| 2026-04-25 14:16 | 44.66826 | -71.92368 | 35003 ft | 495 kts | 56° |
| 2026-04-25 14:16 | 44.70657 | -71.84326 | 35000 ft | 495 kts | 56° |
| 2026-04-25 14:17 | 44.74483 | -71.76270 | 35000 ft | 496 kts | 56° |
| 2026-04-25 14:17 | 44.78306 | -71.68199 | 34997 ft | 495 kts | 56° |
| 2026-04-25 14:18 | 44.82119 | -71.60125 | 35003 ft | 495 kts | 56° |
| 2026-04-25 14:18 | 44.85928 | -71.52038 | 34996 ft | 495 kts | 56° |
| 2026-04-25 14:19 | 44.89728 | -71.43946 | 35001 ft | 495 kts | 56° |
| 2026-04-25 14:19 | 44.93525 | -71.35837 | 34995 ft | 496 kts | 56° |
| 2026-04-25 14:20 | 44.97325 | -71.27702 | 34999 ft | 497 kts | 56° |
| 2026-04-25 14:20 | 45.01125 | -71.19540 | 34999 ft | 497 kts | 56° |
| 2026-04-25 14:21 | 45.04912 | -71.11383 | 35004 ft | 496 kts | 57° |
| 2026-04-25 14:21 | 45.08698 | -71.03209 | 35003 ft | 496 kts | 57° |
| 2026-04-25 14:22 | 45.11950 | -70.94612 | 34998 ft | 496 kts | 65° |
| 2026-04-25 14:22 | 45.14780 | -70.85767 | 34993 ft | 497 kts | 66° |
| 2026-04-25 14:23 | 45.17565 | -70.76796 | 34998 ft | 498 kts | 66° |
| 2026-04-25 14:23 | 45.20346 | -70.67810 | 35000 ft | 498 kts | 66° |
| 2026-04-25 14:24 | 45.23128 | -70.58831 | 35003 ft | 496 kts | 66° |
| 2026-04-25 14:24 | 45.25900 | -70.49872 | 35003 ft | 495 kts | 66° |
| 2026-04-25 14:25 | 45.28663 | -70.40910 | 35001 ft | 495 kts | 66° |
| 2026-04-25 14:25 | 45.31418 | -70.31941 | 35003 ft | 495 kts | 66° |
| 2026-04-25 14:26 | 45.34164 | -70.22971 | 35004 ft | 495 kts | 66° |
| 2026-04-25 14:26 | 45.36901 | -70.13997 | 34999 ft | 495 kts | 66° |
| 2026-04-25 14:27 | 45.39630 | -70.05016 | 35000 ft | 495 kts | 66° |
| 2026-04-25 14:27 | 45.42352 | -69.96027 | 34999 ft | 495 kts | 66° |
| 2026-04-25 14:28 | 45.45068 | -69.87027 | 35004 ft | 494 kts | 66° |
| 2026-04-25 14:28 | 45.47776 | -69.78023 | 35487 ft | 493 kts | 66° |
| 2026-04-25 14:28 | 45.49120 | -69.73540 | 35929 ft | 491 kts | 67° |
| 2026-04-25 14:29 | 45.50461 | -69.69061 | 36252 ft | 491 kts | 67° |
| 2026-04-25 14:29 | 45.51799 | -69.64581 | 36585 ft | 491 kts | 67° |
| 2026-04-25 14:29 | 45.53135 | -69.60102 | 36907 ft | 490 kts | 67° |
| 2026-04-25 14:29 | 45.54468 | -69.55626 | 37212 ft | 490 kts | 67° |
| 2026-04-25 14:30 | 45.55799 | -69.51148 | 37488 ft | 490 kts | 67° |
| 2026-04-25 14:30 | 45.58456 | -69.42185 | 37989 ft | 491 kts | 67° |
| 2026-04-25 14:30 | 45.59786 | -69.37687 | 38188 ft | 492 kts | 67° |
| 2026-04-25 14:31 | 45.61118 | -69.33175 | 38429 ft | 493 kts | 67° |
| 2026-04-25 14:31 | 45.62445 | -69.28667 | 38685 ft | 492 kts | 67° |
| 2026-04-25 14:31 | 45.63769 | -69.24165 | 38910 ft | 492 kts | 67° |
| 2026-04-25 14:31 | 45.65095 | -69.19647 | 38986 ft | 492 kts | 67° |
| 2026-04-25 14:32 | 45.67735 | -69.10630 | 39004 ft | 492 kts | 67° |
| 2026-04-25 14:32 | 45.70366 | -69.01606 | 39004 ft | 491 kts | 67° |
| 2026-04-25 14:33 | 45.72968 | -68.92652 | 39001 ft | 490 kts | 67° |
| 2026-04-25 14:33 | 45.75578 | -68.83640 | 39000 ft | 490 kts | 67° |
| 2026-04-25 14:34 | 45.78180 | -68.74619 | 38999 ft | 490 kts | 68° |
| 2026-04-25 14:34 | 45.80353 | -68.67061 | 38996 ft | 490 kts | 68° |
| 2026-04-25 14:35 | 45.82940 | -68.58031 | 39003 ft | 490 kts | 68° |
| 2026-04-25 14:35 | 45.85522 | -68.48985 | 39005 ft | 490 kts | 68° |
| 2026-04-25 14:36 | 45.88096 | -68.39939 | 38998 ft | 490 kts | 68° |
| 2026-04-25 14:36 | 45.90663 | -68.30880 | 38996 ft | 490 kts | 68° |
| 2026-04-25 14:37 | 45.93207 | -68.21869 | 38999 ft | 490 kts | 68° |
| 2026-04-25 14:37 | 45.95762 | -68.12783 | 39000 ft | 491 kts | 68° |
| 2026-04-25 14:38 | 45.98313 | -68.03681 | 39002 ft | 491 kts | 68° |
| 2026-04-25 14:38 | 46.00861 | -67.94556 | 39000 ft | 491 kts | 68° |
| 2026-04-25 14:39 | 46.03467 | -67.85479 | 38995 ft | 491 kts | 63° |
| 2026-04-25 14:39 | 46.07061 | -67.77142 | 38997 ft | 491 kts | 55° |
| 2026-04-25 14:40 | 46.11006 | -67.69114 | 39001 ft | 491 kts | 54° |
| 2026-04-25 14:40 | 46.15000 | -67.61133 | 38997 ft | 491 kts | 54° |
| 2026-04-25 14:41 | 46.18976 | -67.53139 | 38999 ft | 490 kts | 54° |
| 2026-04-25 14:41 | 46.22935 | -67.45120 | 39001 ft | 491 kts | 54° |
| 2026-04-25 14:42 | 46.26219 | -67.38438 | 39002 ft | 491 kts | 54° |
| 2026-04-25 14:42 | 46.30805 | -67.29077 | 39001 ft | 491 kts | 54° |
| 2026-04-25 14:43 | 46.34752 | -67.20998 | 38997 ft | 492 kts | 54° |
| 2026-04-25 14:43 | 46.38695 | -67.12906 | 38997 ft | 492 kts | 54° |
| 2026-04-25 14:44 | 46.42633 | -67.04800 | 39001 ft | 492 kts | 54° |
| 2026-04-25 14:44 | 46.46566 | -66.96681 | 39005 ft | 492 kts | 54° |
| 2026-04-25 14:45 | 46.50488 | -66.88561 | 39001 ft | 492 kts | 55° |
| 2026-04-25 14:45 | 46.54411 | -66.80416 | 38998 ft | 492 kts | 55° |
| 2026-04-25 14:46 | 46.58325 | -66.72265 | 39000 ft | 492 kts | 55° |
| 2026-04-25 14:46 | 46.62231 | -66.64107 | 38997 ft | 491 kts | 55° |
| 2026-04-25 14:47 | 46.65472 | -66.57320 | 38997 ft | 492 kts | 55° |
| 2026-04-25 14:47 | 46.70027 | -66.47752 | 39002 ft | 491 kts | 55° |
| 2026-04-25 14:48 | 46.73915 | -66.39560 | 38998 ft | 491 kts | 55° |
| 2026-04-25 14:48 | 46.77794 | -66.31362 | 39000 ft | 491 kts | 55° |
| 2026-04-25 14:49 | 46.81673 | -66.23142 | 39000 ft | 491 kts | 55° |
| 2026-04-25 14:49 | 46.85540 | -66.14921 | 39001 ft | 491 kts | 55° |
| 2026-04-25 14:50 | 46.89375 | -66.06742 | 39000 ft | 491 kts | 55° |
| 2026-04-25 14:50 | 46.93226 | -65.98509 | 39005 ft | 490 kts | 55° |
| 2026-04-25 14:51 | 46.97069 | -65.90266 | 39002 ft | 490 kts | 56° |
| 2026-04-25 14:51 | 47.00907 | -65.82009 | 38997 ft | 490 kts | 56° |
| 2026-04-25 14:52 | 47.04736 | -65.73749 | 39000 ft | 490 kts | 56° |
| 2026-04-25 14:52 | 47.07911 | -65.66878 | 39001 ft | 490 kts | 56° |
| 2026-04-25 14:53 | 47.12380 | -65.57181 | 39001 ft | 490 kts | 56° |
| 2026-04-25 14:53 | 47.16195 | -65.48877 | 39003 ft | 490 kts | 56° |
| 2026-04-25 14:54 | 47.20001 | -65.40565 | 39001 ft | 490 kts | 56° |
| 2026-04-25 14:54 | 47.23803 | -65.32238 | 39001 ft | 490 kts | 56° |
| 2026-04-25 14:55 | 47.27597 | -65.23903 | 38997 ft | 490 kts | 56° |
| 2026-04-25 14:55 | 47.31385 | -65.15554 | 38997 ft | 490 kts | 56° |
| 2026-04-25 14:56 | 47.35165 | -65.07200 | 39002 ft | 490 kts | 56° |
| 2026-04-25 14:56 | 47.38938 | -64.98835 | 38998 ft | 490 kts | 56° |
| 2026-04-25 14:57 | 47.42706 | -64.90458 | 38998 ft | 490 kts | 56° |
| 2026-04-25 14:57 | 47.46466 | -64.82070 | 39000 ft | 490 kts | 56° |
| 2026-04-25 14:58 | 47.50220 | -64.73670 | 38997 ft | 490 kts | 56° |
| 2026-04-25 14:58 | 47.53967 | -64.65260 | 39000 ft | 490 kts | 56° |
| 2026-04-25 14:59 | 47.57684 | -64.56894 | 38997 ft | 490 kts | 56° |
| 2026-04-25 14:59 | 47.61419 | -64.48458 | 38997 ft | 490 kts | 57° |
| 2026-04-25 15:00 | 47.65148 | -64.40012 | 38997 ft | 490 kts | 57° |
| 2026-04-25 15:00 | 47.68869 | -64.31557 | 38999 ft | 490 kts | 57° |
| 2026-04-25 15:01 | 47.72588 | -64.23082 | 38998 ft | 490 kts | 57° |
| 2026-04-25 15:01 | 47.76298 | -64.14600 | 39002 ft | 490 kts | 57° |
| 2026-04-25 15:02 | 47.80000 | -64.06109 | 38997 ft | 490 kts | 57° |
| 2026-04-25 15:02 | 47.83701 | -63.97595 | 38997 ft | 490 kts | 57° |
| 2026-04-25 15:03 | 47.87393 | -63.89076 | 38997 ft | 490 kts | 57° |
| 2026-04-25 15:03 | 47.91052 | -63.80605 | 39001 ft | 490 kts | 57° |
| 2026-04-25 15:04 | 47.94757 | -63.72002 | 39000 ft | 490 kts | 57° |
| 2026-04-25 15:04 | 47.98406 | -63.63500 | 39000 ft | 490 kts | 57° |
| 2026-04-25 15:05 | 48.02071 | -63.54936 | 38999 ft | 490 kts | 57° |
| 2026-04-25 15:06 | 48.07561 | -63.42056 | 39004 ft | 490 kts | 57° |
| 2026-04-25 15:06 | 48.11212 | -63.33456 | 39004 ft | 490 kts | 57° |
| 2026-04-25 15:07 | 48.14856 | -63.24844 | 39001 ft | 490 kts | 57° |
| 2026-04-25 15:07 | 48.18491 | -63.16228 | 38998 ft | 490 kts | 57° |
| 2026-04-25 15:08 | 48.22123 | -63.07591 | 39002 ft | 490 kts | 58° |
| 2026-04-25 15:08 | 48.25748 | -62.98943 | 39002 ft | 490 kts | 58° |
| 2026-04-25 15:09 | 48.29365 | -62.90285 | 39001 ft | 490 kts | 58° |
| 2026-04-25 15:09 | 48.34782 | -62.77268 | 39005 ft | 490 kts | 58° |
| 2026-04-25 15:10 | 48.38382 | -62.68582 | 38998 ft | 490 kts | 58° |
| 2026-04-25 15:11 | 48.43774 | -62.55519 | 39000 ft | 490 kts | 58° |
| 2026-04-25 15:11 | 48.47360 | -62.46796 | 39005 ft | 490 kts | 58° |
| 2026-04-25 15:12 | 48.52726 | -62.33691 | 38997 ft | 490 kts | 58° |
| 2026-04-25 15:12 | 48.55090 | -62.27897 | 39006 ft | 489 kts | 58° |
| 2026-04-25 15:13 | 48.61616 | -62.11845 | 39106 ft | 488 kts | 58° |
| 2026-04-25 15:14 | 48.65167 | -62.03093 | 39027 ft | 489 kts | 58° |
| 2026-04-25 15:14 | 48.68727 | -61.94314 | 39013 ft | 489 kts | 58° |
| 2026-04-25 15:15 | 48.72258 | -61.85601 | 39087 ft | 488 kts | 58° |
| 2026-04-25 15:15 | 48.75804 | -61.76846 | 39081 ft | 488 kts | 58° |
| 2026-04-25 15:16 | 48.79363 | -61.68062 | 39030 ft | 489 kts | 58° |
| 2026-04-25 15:16 | 48.84709 | -61.54877 | 39073 ft | 488 kts | 58° |
| 2026-04-25 15:17 | 48.90049 | -61.41713 | 39065 ft | 488 kts | 58° |
| 2026-04-25 15:18 | 48.93624 | -61.32917 | 39030 ft | 489 kts | 58° |
| 2026-04-25 15:18 | 48.98995 | -61.19725 | 39068 ft | 488 kts | 58° |
| 2026-04-25 15:19 | 49.01391 | -61.13846 | 39068 ft | 488 kts | 58° |
| 2026-04-25 15:19 | 49.05893 | -61.02804 | 39032 ft | 489 kts | 58° |
| 2026-04-25 15:20 | 49.09488 | -60.93994 | 39046 ft | 489 kts | 58° |
| 2026-04-25 15:20 | 49.13077 | -60.85198 | 39093 ft | 488 kts | 58° |
| 2026-04-25 15:21 | 49.16670 | -60.76401 | 39071 ft | 488 kts | 58° |
| 2026-04-25 15:21 | 49.20273 | -60.67591 | 39034 ft | 489 kts | 58° |
| 2026-04-25 15:22 | 49.23882 | -60.58780 | 39057 ft | 488 kts | 58° |
| 2026-04-25 15:22 | 49.27491 | -60.49974 | 39074 ft | 488 kts | 58° |
| 2026-04-25 15:23 | 49.30492 | -60.42654 | 39063 ft | 488 kts | 58° |
| 2026-04-25 15:23 | 49.34111 | -60.33831 | 39043 ft | 489 kts | 58° |
| 2026-04-25 15:24 | 49.37732 | -60.25009 | 39065 ft | 488 kts | 58° |
| 2026-04-25 15:24 | 49.40738 | -60.17687 | 39082 ft | 488 kts | 58° |
| 2026-04-25 15:25 | 49.44962 | -60.07361 | 39047 ft | 489 kts | 58° |
| 2026-04-25 15:25 | 49.48573 | -59.98498 | 39028 ft | 489 kts | 58° |
| 2026-04-25 15:26 | 49.52179 | -59.89630 | 39050 ft | 489 kts | 58° |
| 2026-04-25 15:26 | 49.55779 | -59.80761 | 39075 ft | 488 kts | 58° |
| 2026-04-25 15:27 | 49.59375 | -59.71894 | 39073 ft | 488 kts | 58° |
| 2026-04-25 15:28 | 49.63795 | -59.60974 | 39045 ft | 489 kts | 58° |
| 2026-04-25 15:28 | 49.67022 | -59.52994 | 39008 ft | 489 kts | 58° |
| 2026-04-25 15:29 | 49.70623 | -59.44083 | 39053 ft | 488 kts | 58° |
| 2026-04-25 15:29 | 49.74218 | -59.35181 | 39062 ft | 488 kts | 58° |